sensor_id;sensor_type;location;lat;lon;timestamp;temperature;humidity
7445;DHT22;3764;48.126;11.594;2024-02-21T00:00:26;5.50;99.90
7445;DHT22;3764;48.126;11.594;2024-02-21T00:02:54;5.50;99.90
7445;DHT22;3764;48.126;11.594;2024-02-21T00:05:25;5.50;99.90
7445;DHT22;3764;48.126;11.594;2024-02-21T00:07:52;5.50;99.90
7445;DHT22;3764;48.126;11.594;2024-02-21T00:10:19;5.50;99.90
7445;DHT22;3764;48.126;11.594;2024-02-21T00:12:46;5.50;99.90
7445;DHT22;3764;48.126;11.594;2024-02-21T00:15:13;5.50;99.90
7445;DHT22;3764;48.126;11.594;2024-02-21T00:17:40;5.60;99.90
7445;DHT22;3764;48.126;11.594;2024-02-21T00:20:10;5.60;99.90
7445;DHT22;3764;48.126;11.594;2024-02-21T00:22:37;5.50;99.90
7445;DHT22;3764;48.126;11.594;2024-02-21T00:25:05;5.50;99.90
7445;DHT22;3764;48.126;11.594;2024-02-21T00:27:32;5.50;99.90
7445;DHT22;3764;48.126;11.594;2024-02-21T00:29:59;5.50;99.90
7445;DHT22;3764;48.126;11.594;2024-02-21T00:32:27;5.50;99.90
7445;DHT22;3764;48.126;11.594;2024-02-21T00:34:54;5.50;99.90
7445;DHT22;3764;48.126;11.594;2024-02-21T00:37:22;5.50;99.90
7445;DHT22;3764;48.126;11.594;2024-02-21T00:39:50;5.50;99.90
7445;DHT22;3764;48.126;11.594;2024-02-21T00:42:17;5.50;99.90
7445;DHT22;3764;48.126;11.594;2024-02-21T00:44:45;5.40;99.90
7445;DHT22;3764;48.126;11.594;2024-02-21T00:47:12;5.40;99.90
7445;DHT22;3764;48.126;11.594;2024-02-21T00:49:39;5.40;99.90
7445;DHT22;3764;48.126;11.594;2024-02-21T00:52:06;5.30;99.90
7445;DHT22;3764;48.126;11.594;2024-02-21T00:54:35;5.30;99.90
7445;DHT22;3764;48.126;11.594;2024-02-21T00:57:02;5.20;99.90
7445;DHT22;3764;48.126;11.594;2024-02-21T00:59:29;5.20;99.90
7445;DHT22;3764;48.126;11.594;2024-02-21T01:01:58;5.20;99.90
7445;DHT22;3764;48.126;11.594;2024-02-21T01:04:25;5.20;99.90
7445;DHT22;3764;48.126;11.594;2024-02-21T01:06:52;5.20;99.90
7445;DHT22;3764;48.126;11.594;2024-02-21T01:09:19;5.20;99.90
7445;DHT22;3764;48.126;11.594;2024-02-21T01:11:48;5.30;99.90
7445;DHT22;3764;48.126;11.594;2024-02-21T01:14:15;5.30;99.90
7445;DHT22;3764;48.126;11.594;2024-02-21T01:16:43;5.30;99.90
7445;DHT22;3764;48.126;11.594;2024-02-21T01:19:10;5.30;99.90
7445;DHT22;3764;48.126;11.594;2024-02-21T01:21:37;5.30;99.90
7445;DHT22;3764;48.126;11.594;2024-02-21T01:24:04;5.30;99.90
7445;DHT22;3764;48.126;11.594;2024-02-21T01:26:31;5.30;99.90
7445;DHT22;3764;48.126;11.594;2024-02-21T01:29:01;5.20;99.90
7445;DHT22;3764;48.126;11.594;2024-02-21T01:31:28;5.20;99.90
7445;DHT22;3764;48.126;11.594;2024-02-21T01:33:55;5.20;99.90
7445;DHT22;3764;48.126;11.594;2024-02-21T01:36:23;5.20;99.90
7445;DHT22;3764;48.126;11.594;2024-02-21T01:38:50;5.20;99.90
7445;DHT22;3764;48.126;11.594;2024-02-21T01:41:18;5.20;99.90
7445;DHT22;3764;48.126;11.594;2024-02-21T01:43:45;5.20;99.90
7445;DHT22;3764;48.126;11.594;2024-02-21T01:46:14;5.20;99.90
7445;DHT22;3764;48.126;11.594;2024-02-21T01:48:41;5.20;99.90
7445;DHT22;3764;48.126;11.594;2024-02-21T01:51:09;5.20;99.90
7445;DHT22;3764;48.126;11.594;2024-02-21T01:53:38;5.20;99.90
7445;DHT22;3764;48.126;11.594;2024-02-21T01:56:09;5.20;99.90
7445;DHT22;3764;48.126;11.594;2024-02-21T01:58:40;5.20;99.90
7445;DHT22;3764;48.126;11.594;2024-02-21T02:01:07;5.20;99.90
7445;DHT22;3764;48.126;11.594;2024-02-21T02:03:36;5.20;99.90
7445;DHT22;3764;48.126;11.594;2024-02-21T02:06:05;5.20;99.90
7445;DHT22;3764;48.126;11.594;2024-02-21T02:08:33;5.20;99.90
7445;DHT22;3764;48.126;11.594;2024-02-21T02:11:00;5.20;99.90
7445;DHT22;3764;48.126;11.594;2024-02-21T02:13:28;5.20;99.90
7445;DHT22;3764;48.126;11.594;2024-02-21T02:15:55;5.20;99.90
7445;DHT22;3764;48.126;11.594;2024-02-21T02:18:22;5.20;99.90
7445;DHT22;3764;48.126;11.594;2024-02-21T02:20:51;5.30;99.90
7445;DHT22;3764;48.126;11.594;2024-02-21T02:23:23;5.30;99.90
7445;DHT22;3764;48.126;11.594;2024-02-21T02:25:50;5.30;99.90
7445;DHT22;3764;48.126;11.594;2024-02-21T02:28:18;5.30;99.90
7445;DHT22;3764;48.126;11.594;2024-02-21T02:30:46;5.30;99.90
7445;DHT22;3764;48.126;11.594;2024-02-21T02:33:13;5.30;99.90
7445;DHT22;3764;48.126;11.594;2024-02-21T02:35:43;5.30;99.90
7445;DHT22;3764;48.126;11.594;2024-02-21T02:38:10;5.40;99.90
7445;DHT22;3764;48.126;11.594;2024-02-21T02:40:40;5.40;99.90
7445;DHT22;3764;48.126;11.594;2024-02-21T02:43:07;5.40;99.90
7445;DHT22;3764;48.126;11.594;2024-02-21T02:45:35;5.40;99.90
7445;DHT22;3764;48.126;11.594;2024-02-21T02:48:02;5.40;99.90
7445;DHT22;3764;48.126;11.594;2024-02-21T02:50:30;5.40;99.90
7445;DHT22;3764;48.126;11.594;2024-02-21T02:52:57;5.30;99.90
7445;DHT22;3764;48.126;11.594;2024-02-21T02:55:25;5.30;99.90
7445;DHT22;3764;48.126;11.594;2024-02-21T02:57:54;5.30;99.90
7445;DHT22;3764;48.126;11.594;2024-02-21T03:00:21;5.30;99.90
7445;DHT22;3764;48.126;11.594;2024-02-21T03:02:49;5.30;99.90
7445;DHT22;3764;48.126;11.594;2024-02-21T03:05:18;5.20;99.90
7445;DHT22;3764;48.126;11.594;2024-02-21T03:07:46;5.30;99.90
7445;DHT22;3764;48.126;11.594;2024-02-21T03:10:14;5.30;99.90
7445;DHT22;3764;48.126;11.594;2024-02-21T03:12:42;5.30;99.90
7445;DHT22;3764;48.126;11.594;2024-02-21T03:15:11;5.30;99.90
7445;DHT22;3764;48.126;11.594;2024-02-21T03:17:39;5.30;99.90
7445;DHT22;3764;48.126;11.594;2024-02-21T03:20:07;5.30;99.90
7445;DHT22;3764;48.126;11.594;2024-02-21T03:22:35;5.30;99.90
7445;DHT22;3764;48.126;11.594;2024-02-21T03:25:03;5.30;99.90
7445;DHT22;3764;48.126;11.594;2024-02-21T03:27:31;5.30;99.90
7445;DHT22;3764;48.126;11.594;2024-02-21T03:29:58;5.30;99.90
7445;DHT22;3764;48.126;11.594;2024-02-21T03:32:27;5.30;99.90
7445;DHT22;3764;48.126;11.594;2024-02-21T03:34:54;5.30;99.90
7445;DHT22;3764;48.126;11.594;2024-02-21T03:37:22;5.30;99.90
7445;DHT22;3764;48.126;11.594;2024-02-21T03:39:49;5.30;99.90
7445;DHT22;3764;48.126;11.594;2024-02-21T03:42:16;5.30;99.90
7445;DHT22;3764;48.126;11.594;2024-02-21T03:44:43;5.30;99.90
7445;DHT22;3764;48.126;11.594;2024-02-21T03:47:11;5.30;99.90
7445;DHT22;3764;48.126;11.594;2024-02-21T03:49:39;5.30;99.90
7445;DHT22;3764;48.126;11.594;2024-02-21T03:52:07;5.30;99.90
7445;DHT22;3764;48.126;11.594;2024-02-21T03:54:34;5.30;99.90
7445;DHT22;3764;48.126;11.594;2024-02-21T03:57:02;5.30;99.90
7445;DHT22;3764;48.126;11.594;2024-02-21T03:59:29;5.30;99.90
7445;DHT22;3764;48.126;11.594;2024-02-21T04:01:56;5.30;99.90
7445;DHT22;3764;48.126;11.594;2024-02-21T04:04:24;5.30;99.90
7445;DHT22;3764;48.126;11.594;2024-02-21T04:06:53;5.30;99.90
7445;DHT22;3764;48.126;11.594;2024-02-21T04:09:20;5.30;99.90
7445;DHT22;3764;48.126;11.594;2024-02-21T04:11:47;5.30;99.90
7445;DHT22;3764;48.126;11.594;2024-02-21T04:14:14;5.30;99.90
7445;DHT22;3764;48.126;11.594;2024-02-21T04:16:42;5.30;99.90
7445;DHT22;3764;48.126;11.594;2024-02-21T04:19:09;5.30;99.90
7445;DHT22;3764;48.126;11.594;2024-02-21T04:21:36;5.30;99.90
7445;DHT22;3764;48.126;11.594;2024-02-21T04:24:05;5.30;99.90
7445;DHT22;3764;48.126;11.594;2024-02-21T04:26:33;5.30;99.90
7445;DHT22;3764;48.126;11.594;2024-02-21T04:29:00;5.20;99.90
7445;DHT22;3764;48.126;11.594;2024-02-21T04:31:27;5.20;99.90
7445;DHT22;3764;48.126;11.594;2024-02-21T04:33:55;5.20;99.90
7445;DHT22;3764;48.126;11.594;2024-02-21T04:36:22;5.20;99.90
7445;DHT22;3764;48.126;11.594;2024-02-21T04:38:49;5.20;99.90
7445;DHT22;3764;48.126;11.594;2024-02-21T04:41:18;5.20;99.90
7445;DHT22;3764;48.126;11.594;2024-02-21T04:43:46;5.30;99.90
7445;DHT22;3764;48.126;11.594;2024-02-21T04:46:13;5.30;99.90
7445;DHT22;3764;48.126;11.594;2024-02-21T04:48:41;5.30;99.90
7445;DHT22;3764;48.126;11.594;2024-02-21T04:51:09;5.30;99.90
7445;DHT22;3764;48.126;11.594;2024-02-21T04:53:36;5.20;99.90
7445;DHT22;3764;48.126;11.594;2024-02-21T04:56:04;5.20;99.90
7445;DHT22;3764;48.126;11.594;2024-02-21T04:58:32;5.20;99.90
7445;DHT22;3764;48.126;11.594;2024-02-21T05:00:59;5.20;99.90
7445;DHT22;3764;48.126;11.594;2024-02-21T05:03:27;5.10;99.90
7445;DHT22;3764;48.126;11.594;2024-02-21T05:05:54;5.10;99.90
7445;DHT22;3764;48.126;11.594;2024-02-21T05:08:21;5.00;99.90
7445;DHT22;3764;48.126;11.594;2024-02-21T05:10:48;5.00;99.90
7445;DHT22;3764;48.126;11.594;2024-02-21T05:13:15;4.90;99.90
7445;DHT22;3764;48.126;11.594;2024-02-21T05:15:44;4.80;99.90
7445;DHT22;3764;48.126;11.594;2024-02-21T05:18:11;4.80;99.90
7445;DHT22;3764;48.126;11.594;2024-02-21T05:20:38;4.70;99.90
7445;DHT22;3764;48.126;11.594;2024-02-21T05:23:05;4.70;99.90
7445;DHT22;3764;48.126;11.594;2024-02-21T05:25:32;4.70;99.90
7445;DHT22;3764;48.126;11.594;2024-02-21T05:28:00;4.70;99.90
7445;DHT22;3764;48.126;11.594;2024-02-21T05:30:28;4.70;99.90
7445;DHT22;3764;48.126;11.594;2024-02-21T05:32:57;4.60;99.90
7445;DHT22;3764;48.126;11.594;2024-02-21T05:35:28;4.60;99.90
7445;DHT22;3764;48.126;11.594;2024-02-21T05:37:55;4.60;99.90
7445;DHT22;3764;48.126;11.594;2024-02-21T05:40:22;4.50;99.90
7445;DHT22;3764;48.126;11.594;2024-02-21T05:42:50;4.50;99.90
7445;DHT22;3764;48.126;11.594;2024-02-21T05:45:18;4.50;99.90
7445;DHT22;3764;48.126;11.594;2024-02-21T05:47:45;4.40;99.90
7445;DHT22;3764;48.126;11.594;2024-02-21T05:50:14;4.40;99.90
7445;DHT22;3764;48.126;11.594;2024-02-21T05:52:41;4.40;99.90
7445;DHT22;3764;48.126;11.594;2024-02-21T05:55:08;4.40;99.90
7445;DHT22;3764;48.126;11.594;2024-02-21T05:57:35;4.40;99.90
7445;DHT22;3764;48.126;11.594;2024-02-21T06:00:05;4.40;99.90
7445;DHT22;3764;48.126;11.594;2024-02-21T06:02:32;4.40;99.90
7445;DHT22;3764;48.126;11.594;2024-02-21T06:04:59;4.30;99.90
7445;DHT22;3764;48.126;11.594;2024-02-21T06:07:28;4.30;99.90
7445;DHT22;3764;48.126;11.594;2024-02-21T06:09:55;4.30;99.90
7445;DHT22;3764;48.126;11.594;2024-02-21T06:12:22;4.30;99.90
7445;DHT22;3764;48.126;11.594;2024-02-21T06:14:49;4.30;99.90
7445;DHT22;3764;48.126;11.594;2024-02-21T06:17:16;4.30;99.90
7445;DHT22;3764;48.126;11.594;2024-02-21T06:19:44;4.30;99.90
7445;DHT22;3764;48.126;11.594;2024-02-21T06:22:11;4.30;99.90
7445;DHT22;3764;48.126;11.594;2024-02-21T06:24:40;4.30;99.90
7445;DHT22;3764;48.126;11.594;2024-02-21T06:27:07;4.30;99.90
7445;DHT22;3764;48.126;11.594;2024-02-21T06:29:34;4.30;99.90
7445;DHT22;3764;48.126;11.594;2024-02-21T06:32:02;4.30;99.90
7445;DHT22;3764;48.126;11.594;2024-02-21T06:34:29;4.30;99.90
7445;DHT22;3764;48.126;11.594;2024-02-21T06:36:56;4.30;99.90
7445;DHT22;3764;48.126;11.594;2024-02-21T06:39:23;4.30;99.90
7445;DHT22;3764;48.126;11.594;2024-02-21T06:41:52;4.30;99.90
7445;DHT22;3764;48.126;11.594;2024-02-21T06:44:20;4.30;99.90
7445;DHT22;3764;48.126;11.594;2024-02-21T06:46:48;4.30;99.90
7445;DHT22;3764;48.126;11.594;2024-02-21T06:49:15;4.30;99.90
7445;DHT22;3764;48.126;11.594;2024-02-21T06:51:42;4.40;99.90
7445;DHT22;3764;48.126;11.594;2024-02-21T06:54:09;4.30;99.90
7445;DHT22;3764;48.126;11.594;2024-02-21T06:56:37;4.40;99.90
7445;DHT22;3764;48.126;11.594;2024-02-21T06:59:06;4.40;99.90
7445;DHT22;3764;48.126;11.594;2024-02-21T07:01:33;4.40;99.90
7445;DHT22;3764;48.126;11.594;2024-02-21T07:04:00;4.40;99.90
7445;DHT22;3764;48.126;11.594;2024-02-21T07:06:27;4.50;99.90
7445;DHT22;3764;48.126;11.594;2024-02-21T07:08:54;4.50;99.90
7445;DHT22;3764;48.126;11.594;2024-02-21T07:11:21;4.50;99.90
7445;DHT22;3764;48.126;11.594;2024-02-21T07:13:49;4.60;99.90
7445;DHT22;3764;48.126;11.594;2024-02-21T07:16:17;4.60;99.90
7445;DHT22;3764;48.126;11.594;2024-02-21T07:18:44;4.60;99.90
7445;DHT22;3764;48.126;11.594;2024-02-21T07:21:11;4.70;99.90
7445;DHT22;3764;48.126;11.594;2024-02-21T07:23:41;4.70;99.90
7445;DHT22;3764;48.126;11.594;2024-02-21T07:26:09;4.80;99.90
7445;DHT22;3764;48.126;11.594;2024-02-21T07:28:36;4.80;99.90
7445;DHT22;3764;48.126;11.594;2024-02-21T07:31:03;4.90;99.90
7445;DHT22;3764;48.126;11.594;2024-02-21T07:33:32;4.90;99.90
7445;DHT22;3764;48.126;11.594;2024-02-21T07:36:01;4.90;99.90
7445;DHT22;3764;48.126;11.594;2024-02-21T07:38:28;5.00;99.90
7445;DHT22;3764;48.126;11.594;2024-02-21T07:40:55;5.00;99.90
7445;DHT22;3764;48.126;11.594;2024-02-21T07:43:22;5.00;99.90
7445;DHT22;3764;48.126;11.594;2024-02-21T07:45:52;5.00;99.90
7445;DHT22;3764;48.126;11.594;2024-02-21T07:48:21;5.00;99.90
7445;DHT22;3764;48.126;11.594;2024-02-21T07:50:51;5.10;99.90
7445;DHT22;3764;48.126;11.594;2024-02-21T07:53:20;5.00;99.90
7445;DHT22;3764;48.126;11.594;2024-02-21T07:55:47;5.10;99.90
7445;DHT22;3764;48.126;11.594;2024-02-21T07:58:15;5.10;99.90
7445;DHT22;3764;48.126;11.594;2024-02-21T08:00:42;5.10;99.90
7445;DHT22;3764;48.126;11.594;2024-02-21T08:03:09;5.10;99.90
7445;DHT22;3764;48.126;11.594;2024-02-21T08:05:36;5.10;99.90
7445;DHT22;3764;48.126;11.594;2024-02-21T08:08:05;5.20;99.90
7445;DHT22;3764;48.126;11.594;2024-02-21T08:10:34;5.20;99.90
7445;DHT22;3764;48.126;11.594;2024-02-21T08:13:01;5.20;99.90
7445;DHT22;3764;48.126;11.594;2024-02-21T08:15:28;5.30;99.90
7445;DHT22;3764;48.126;11.594;2024-02-21T08:17:55;5.30;99.90
7445;DHT22;3764;48.126;11.594;2024-02-21T08:20:25;5.40;99.90
7445;DHT22;3764;48.126;11.594;2024-02-21T08:22:52;5.40;99.90
7445;DHT22;3764;48.126;11.594;2024-02-21T08:25:21;5.50;99.90
7445;DHT22;3764;48.126;11.594;2024-02-21T08:27:48;5.60;99.90
7445;DHT22;3764;48.126;11.594;2024-02-21T08:30:17;5.60;99.90
7445;DHT22;3764;48.126;11.594;2024-02-21T08:32:45;5.70;99.90
7445;DHT22;3764;48.126;11.594;2024-02-21T08:35:13;5.80;99.90
7445;DHT22;3764;48.126;11.594;2024-02-21T08:37:40;5.80;99.90
7445;DHT22;3764;48.126;11.594;2024-02-21T08:40:09;5.90;99.90
7445;DHT22;3764;48.126;11.594;2024-02-21T08:42:39;6.00;99.90
7445;DHT22;3764;48.126;11.594;2024-02-21T08:45:07;6.10;99.90
7445;DHT22;3764;48.126;11.594;2024-02-21T08:47:34;6.20;99.90
7445;DHT22;3764;48.126;11.594;2024-02-21T08:50:02;6.20;99.90
7445;DHT22;3764;48.126;11.594;2024-02-21T08:52:31;6.30;99.90
7445;DHT22;3764;48.126;11.594;2024-02-21T08:54:59;6.40;99.90
7445;DHT22;3764;48.126;11.594;2024-02-21T08:57:27;6.50;99.90
7445;DHT22;3764;48.126;11.594;2024-02-21T08:59:56;6.50;99.90
7445;DHT22;3764;48.126;11.594;2024-02-21T09:02:23;6.60;99.90
7445;DHT22;3764;48.126;11.594;2024-02-21T09:04:50;6.60;99.90
7445;DHT22;3764;48.126;11.594;2024-02-21T09:07:17;6.60;99.90
7445;DHT22;3764;48.126;11.594;2024-02-21T09:09:44;6.70;99.90
7445;DHT22;3764;48.126;11.594;2024-02-21T09:12:11;6.80;99.90
7445;DHT22;3764;48.126;11.594;2024-02-21T09:14:41;6.90;99.90
7445;DHT22;3764;48.126;11.594;2024-02-21T09:17:09;7.00;99.90
7445;DHT22;3764;48.126;11.594;2024-02-21T09:19:38;7.00;99.90
7445;DHT22;3764;48.126;11.594;2024-02-21T09:22:05;7.10;99.90
7445;DHT22;3764;48.126;11.594;2024-02-21T09:24:32;7.10;99.90
7445;DHT22;3764;48.126;11.594;2024-02-21T09:26:59;7.20;99.90
7445;DHT22;3764;48.126;11.594;2024-02-21T09:29:26;7.20;99.90
7445;DHT22;3764;48.126;11.594;2024-02-21T09:31:54;7.20;99.90
7445;DHT22;3764;48.126;11.594;2024-02-21T09:34:23;7.30;99.90
7445;DHT22;3764;48.126;11.594;2024-02-21T09:36:50;7.30;99.90
7445;DHT22;3764;48.126;11.594;2024-02-21T09:39:17;7.30;99.90
7445;DHT22;3764;48.126;11.594;2024-02-21T09:41:47;7.40;99.90
7445;DHT22;3764;48.126;11.594;2024-02-21T09:44:19;7.40;99.90
7445;DHT22;3764;48.126;11.594;2024-02-21T09:46:52;7.40;99.90
7445;DHT22;3764;48.126;11.594;2024-02-21T09:49:30;7.40;99.90
7445;DHT22;3764;48.126;11.594;2024-02-21T09:52:02;7.50;99.90
7445;DHT22;3764;48.126;11.594;2024-02-21T09:54:30;7.50;99.90
7445;DHT22;3764;48.126;11.594;2024-02-21T09:56:57;7.50;99.90
7445;DHT22;3764;48.126;11.594;2024-02-21T09:59:27;7.60;99.90
7445;DHT22;3764;48.126;11.594;2024-02-21T10:01:55;7.60;99.90
7445;DHT22;3764;48.126;11.594;2024-02-21T10:04:23;7.70;99.90
7445;DHT22;3764;48.126;11.594;2024-02-21T10:06:51;7.70;99.90
7445;DHT22;3764;48.126;11.594;2024-02-21T10:09:21;7.80;99.90
7445;DHT22;3764;48.126;11.594;2024-02-21T10:11:49;7.90;99.90
7445;DHT22;3764;48.126;11.594;2024-02-21T10:14:16;8.00;99.90
7445;DHT22;3764;48.126;11.594;2024-02-21T10:16:44;8.00;99.90
7445;DHT22;3764;48.126;11.594;2024-02-21T10:19:18;8.00;99.90
7445;DHT22;3764;48.126;11.594;2024-02-21T10:22:03;8.00;99.90
7445;DHT22;3764;48.126;11.594;2024-02-21T10:24:31;8.10;99.90
7445;DHT22;3764;48.126;11.594;2024-02-21T10:27:01;8.10;99.90
7445;DHT22;3764;48.126;11.594;2024-02-21T10:29:29;8.20;99.90
7445;DHT22;3764;48.126;11.594;2024-02-21T10:32:05;8.30;99.90
7445;DHT22;3764;48.126;11.594;2024-02-21T10:34:32;8.40;99.90
7445;DHT22;3764;48.126;11.594;2024-02-21T10:37:02;8.60;99.90
7445;DHT22;3764;48.126;11.594;2024-02-21T10:39:30;8.70;99.90
7445;DHT22;3764;48.126;11.594;2024-02-21T10:42:00;8.90;99.90
7445;DHT22;3764;48.126;11.594;2024-02-21T10:44:29;9.00;99.90
7445;DHT22;3764;48.126;11.594;2024-02-21T10:46:57;9.00;99.90
7445;DHT22;3764;48.126;11.594;2024-02-21T10:49:25;9.10;99.90
7445;DHT22;3764;48.126;11.594;2024-02-21T10:51:57;9.10;99.90
7445;DHT22;3764;48.126;11.594;2024-02-21T10:54:44;9.10;99.90
7445;DHT22;3764;48.126;11.594;2024-02-21T10:57:13;9.10;99.90
7445;DHT22;3764;48.126;11.594;2024-02-21T10:59:41;9.20;99.90
7445;DHT22;3764;48.126;11.594;2024-02-21T11:02:09;9.30;99.90
7445;DHT22;3764;48.126;11.594;2024-02-21T11:04:37;9.50;99.90
7445;DHT22;3764;48.126;11.594;2024-02-21T11:07:05;9.60;99.90
7445;DHT22;3764;48.126;11.594;2024-02-21T11:09:34;9.70;99.90
7445;DHT22;3764;48.126;11.594;2024-02-21T11:12:03;9.80;99.40
7445;DHT22;3764;48.126;11.594;2024-02-21T11:14:31;10.00;97.70
7445;DHT22;3764;48.126;11.594;2024-02-21T11:17:02;10.10;96.80
7445;DHT22;3764;48.126;11.594;2024-02-21T11:19:30;10.30;97.10
7445;DHT22;3764;48.126;11.594;2024-02-21T11:21:58;10.40;97.10
7445;DHT22;3764;48.126;11.594;2024-02-21T11:24:28;10.50;97.00
7445;DHT22;3764;48.126;11.594;2024-02-21T11:27:07;10.60;96.30
7445;DHT22;3764;48.126;11.594;2024-02-21T11:29:40;10.70;97.00
7445;DHT22;3764;48.126;11.594;2024-02-21T11:32:09;10.90;94.60
7445;DHT22;3764;48.126;11.594;2024-02-21T11:34:37;11.10;94.00
7445;DHT22;3764;48.126;11.594;2024-02-21T11:37:13;11.20;93.00
7445;DHT22;3764;48.126;11.594;2024-02-21T11:39:42;11.30;93.50
7445;DHT22;3764;48.126;11.594;2024-02-21T11:42:10;11.30;93.10
7445;DHT22;3764;48.126;11.594;2024-02-21T11:44:38;11.40;92.60
7445;DHT22;3764;48.126;11.594;2024-02-21T11:47:08;11.30;91.80
7445;DHT22;3764;48.126;11.594;2024-02-21T11:49:37;11.40;91.60
7445;DHT22;3764;48.126;11.594;2024-02-21T11:52:06;11.40;91.30
7445;DHT22;3764;48.126;11.594;2024-02-21T11:54:33;11.30;92.70
7445;DHT22;3764;48.126;11.594;2024-02-21T11:57:01;11.40;92.80
7445;DHT22;3764;48.126;11.594;2024-02-21T11:59:31;11.40;93.10
7445;DHT22;3764;48.126;11.594;2024-02-21T12:01:59;11.50;94.10
7445;DHT22;3764;48.126;11.594;2024-02-21T12:04:26;11.50;92.00
7445;DHT22;3764;48.126;11.594;2024-02-21T12:06:54;11.50;92.30
7445;DHT22;3764;48.126;11.594;2024-02-21T12:09:23;11.60;91.00
7445;DHT22;3764;48.126;11.594;2024-02-21T12:11:57;11.60;92.30
7445;DHT22;3764;48.126;11.594;2024-02-21T12:14:25;11.80;92.60
7445;DHT22;3764;48.126;11.594;2024-02-21T12:16:54;11.90;93.00
7445;DHT22;3764;48.126;11.594;2024-02-21T12:19:22;12.10;91.40
7445;DHT22;3764;48.126;11.594;2024-02-21T12:21:49;12.30;91.40
7445;DHT22;3764;48.126;11.594;2024-02-21T12:24:21;12.40;91.90
7445;DHT22;3764;48.126;11.594;2024-02-21T12:26:49;12.50;91.20
7445;DHT22;3764;48.126;11.594;2024-02-21T12:29:16;12.60;91.30
7445;DHT22;3764;48.126;11.594;2024-02-21T12:31:43;12.70;90.20
7445;DHT22;3764;48.126;11.594;2024-02-21T12:34:12;12.70;90.10
7445;DHT22;3764;48.126;11.594;2024-02-21T12:36:42;12.70;89.00
7445;DHT22;3764;48.126;11.594;2024-02-21T12:39:09;12.80;90.70
7445;DHT22;3764;48.126;11.594;2024-02-21T12:41:37;13.00;86.80
7445;DHT22;3764;48.126;11.594;2024-02-21T12:44:06;13.10;85.40
7445;DHT22;3764;48.126;11.594;2024-02-21T12:46:34;13.20;85.60
7445;DHT22;3764;48.126;11.594;2024-02-21T12:49:01;13.30;82.10
7445;DHT22;3764;48.126;11.594;2024-02-21T12:51:30;13.30;78.60
7445;DHT22;3764;48.126;11.594;2024-02-21T12:53:57;13.30;83.00
7445;DHT22;3764;48.126;11.594;2024-02-21T12:56:24;13.30;84.80
7445;DHT22;3764;48.126;11.594;2024-02-21T12:58:53;13.40;81.80
7445;DHT22;3764;48.126;11.594;2024-02-21T13:01:20;13.40;80.30
7445;DHT22;3764;48.126;11.594;2024-02-21T13:03:48;13.40;81.50
7445;DHT22;3764;48.126;11.594;2024-02-21T13:06:15;13.40;80.10
7445;DHT22;3764;48.126;11.594;2024-02-21T13:08:43;13.50;80.00
7445;DHT22;3764;48.126;11.594;2024-02-21T13:11:12;13.50;80.50
7445;DHT22;3764;48.126;11.594;2024-02-21T13:13:39;13.50;81.50
7445;DHT22;3764;48.126;11.594;2024-02-21T13:16:07;13.50;82.10
7445;DHT22;3764;48.126;11.594;2024-02-21T13:18:35;13.50;80.60
7445;DHT22;3764;48.126;11.594;2024-02-21T13:21:04;13.50;80.80
7445;DHT22;3764;48.126;11.594;2024-02-21T13:23:31;13.50;77.30
7445;DHT22;3764;48.126;11.594;2024-02-21T13:26:00;13.50;78.70
7445;DHT22;3764;48.126;11.594;2024-02-21T13:28:27;13.50;78.30
7445;DHT22;3764;48.126;11.594;2024-02-21T13:30:54;13.50;77.50
7445;DHT22;3764;48.126;11.594;2024-02-21T13:33:23;13.50;77.10
7445;DHT22;3764;48.126;11.594;2024-02-21T13:35:50;13.50;75.40
7445;DHT22;3764;48.126;11.594;2024-02-21T13:38:17;13.50;74.60
7445;DHT22;3764;48.126;11.594;2024-02-21T13:40:45;13.50;74.80
7445;DHT22;3764;48.126;11.594;2024-02-21T13:43:13;13.50;73.90
7445;DHT22;3764;48.126;11.594;2024-02-21T13:45:40;13.50;74.80
7445;DHT22;3764;48.126;11.594;2024-02-21T13:48:15;13.40;78.40
7445;DHT22;3764;48.126;11.594;2024-02-21T13:50:42;13.40;76.80
7445;DHT22;3764;48.126;11.594;2024-02-21T13:53:09;13.30;75.30
7445;DHT22;3764;48.126;11.594;2024-02-21T13:55:37;13.30;73.90
7445;DHT22;3764;48.126;11.594;2024-02-21T13:58:06;13.30;73.30
7445;DHT22;3764;48.126;11.594;2024-02-21T14:00:36;13.30;73.00
7445;DHT22;3764;48.126;11.594;2024-02-21T14:03:03;13.40;71.90
7445;DHT22;3764;48.126;11.594;2024-02-21T14:05:30;13.40;72.30
7445;DHT22;3764;48.126;11.594;2024-02-21T14:07:57;13.50;72.30
7445;DHT22;3764;48.126;11.594;2024-02-21T14:10:25;13.50;75.00
7445;DHT22;3764;48.126;11.594;2024-02-21T14:12:52;13.40;75.40
7445;DHT22;3764;48.126;11.594;2024-02-21T14:15:19;13.40;75.60
7445;DHT22;3764;48.126;11.594;2024-02-21T14:17:47;13.40;74.40
7445;DHT22;3764;48.126;11.594;2024-02-21T14:20:15;13.30;73.90
7445;DHT22;3764;48.126;11.594;2024-02-21T14:22:42;13.30;72.30
7445;DHT22;3764;48.126;11.594;2024-02-21T14:25:09;13.30;72.60
7445;DHT22;3764;48.126;11.594;2024-02-21T14:27:36;13.30;72.90
7445;DHT22;3764;48.126;11.594;2024-02-21T14:30:04;13.30;75.10
7445;DHT22;3764;48.126;11.594;2024-02-21T14:32:32;13.20;75.30
7445;DHT22;3764;48.126;11.594;2024-02-21T14:35:00;13.20;74.20
7445;DHT22;3764;48.126;11.594;2024-02-21T14:37:28;13.20;74.40
7445;DHT22;3764;48.126;11.594;2024-02-21T14:39:56;13.10;75.30
7445;DHT22;3764;48.126;11.594;2024-02-21T14:42:23;13.20;75.10
7445;DHT22;3764;48.126;11.594;2024-02-21T14:44:51;13.20;74.00
7445;DHT22;3764;48.126;11.594;2024-02-21T14:47:18;13.20;76.80
7445;DHT22;3764;48.126;11.594;2024-02-21T14:49:45;13.10;76.70
7445;DHT22;3764;48.126;11.594;2024-02-21T14:52:14;13.00;76.60
7445;DHT22;3764;48.126;11.594;2024-02-21T14:54:43;13.00;76.80
7445;DHT22;3764;48.126;11.594;2024-02-21T14:57:14;12.90;75.80
7445;DHT22;3764;48.126;11.594;2024-02-21T14:59:41;12.90;77.90
7445;DHT22;3764;48.126;11.594;2024-02-21T15:02:09;12.90;78.10
7445;DHT22;3764;48.126;11.594;2024-02-21T15:04:36;12.80;75.30
7445;DHT22;3764;48.126;11.594;2024-02-21T15:07:04;12.80;77.30
7445;DHT22;3764;48.126;11.594;2024-02-21T15:09:32;12.80;76.60
7445;DHT22;3764;48.126;11.594;2024-02-21T15:11:59;12.80;76.30
7445;DHT22;3764;48.126;11.594;2024-02-21T15:14:26;12.80;75.40
7445;DHT22;3764;48.126;11.594;2024-02-21T15:16:54;12.70;76.20
7445;DHT22;3764;48.126;11.594;2024-02-21T15:19:21;12.70;76.60
7445;DHT22;3764;48.126;11.594;2024-02-21T15:21:48;12.70;78.50
7445;DHT22;3764;48.126;11.594;2024-02-21T15:24:15;12.70;78.40
7445;DHT22;3764;48.126;11.594;2024-02-21T15:26:44;12.60;78.30
7445;DHT22;3764;48.126;11.594;2024-02-21T15:29:11;12.60;79.00
7445;DHT22;3764;48.126;11.594;2024-02-21T15:31:39;12.60;81.30
7445;DHT22;3764;48.126;11.594;2024-02-21T15:34:09;12.50;81.10
7445;DHT22;3764;48.126;11.594;2024-02-21T15:36:36;12.50;79.90
7445;DHT22;3764;48.126;11.594;2024-02-21T15:39:03;12.50;82.40
7445;DHT22;3764;48.126;11.594;2024-02-21T15:41:30;12.40;81.90
7445;DHT22;3764;48.126;11.594;2024-02-21T15:43:59;12.40;81.30
7445;DHT22;3764;48.126;11.594;2024-02-21T15:46:26;12.40;82.20
7445;DHT22;3764;48.126;11.594;2024-02-21T15:48:53;12.30;84.10
7445;DHT22;3764;48.126;11.594;2024-02-21T15:51:21;12.30;83.40
7445;DHT22;3764;48.126;11.594;2024-02-21T15:53:49;12.20;82.70
7445;DHT22;3764;48.126;11.594;2024-02-21T15:56:16;12.20;82.80
7445;DHT22;3764;48.126;11.594;2024-02-21T15:58:43;12.20;83.40
7445;DHT22;3764;48.126;11.594;2024-02-21T16:01:12;12.10;84.00